createdAt,value
2023-04-21T00:00:10.557Z,47.20
2023-04-21T00:02:41.534Z,47.70
2023-04-21T00:05:13.898Z,47.30
2023-04-21T00:07:42.866Z,46.80
2023-04-21T00:10:12.181Z,47.20
2023-04-21T00:12:41.395Z,47.10
2023-04-21T00:15:10.653Z,47.10
2023-04-21T00:17:40.927Z,48.20
2023-04-21T00:20:11.960Z,48.70
2023-04-21T00:22:40.244Z,51.50
2023-04-21T00:25:09.310Z,54.00
2023-04-21T00:27:38.196Z,54.70
2023-04-21T00:30:07.381Z,55.10
2023-04-21T00:32:38.615Z,53.90
2023-04-21T00:35:07.665Z,55.40
2023-04-21T00:37:37.900Z,55.60
2023-04-21T00:40:07.150Z,55.60
2023-04-21T00:42:35.993Z,54.50
2023-04-21T00:45:04.840Z,53.80
2023-04-21T00:47:33.536Z,53.10
2023-04-21T00:50:04.280Z,52.00
2023-04-21T00:52:32.764Z,52.30
2023-04-21T00:55:02.947Z,51.90
2023-04-21T00:57:33.582Z,51.70
2023-04-21T01:00:02.071Z,52.30
2023-04-21T01:02:30.578Z,52.30
2023-04-21T01:04:58.982Z,52.40
2023-04-21T01:07:27.920Z,53.20
2023-04-21T01:09:58.073Z,54.90
2023-04-21T01:12:28.107Z,57.80
2023-04-21T01:14:56.824Z,57.90
2023-04-21T01:17:25.732Z,57.10
2023-04-21T01:19:57.940Z,56.00
2023-04-21T01:22:27.877Z,56.00
2023-04-21T01:24:56.642Z,54.60
2023-04-21T01:27:26.958Z,54.60
2023-04-21T01:29:56.103Z,53.90
2023-04-21T01:32:29.033Z,53.30
2023-04-21T01:34:59.777Z,52.10
2023-04-21T01:37:33.023Z,51.50
2023-04-21T01:40:04.988Z,52.70
2023-04-21T01:42:36.101Z,53.20
2023-04-21T01:45:05.119Z,54.60
2023-04-21T01:47:33.806Z,53.90
2023-04-21T01:50:02.134Z,53.30
2023-04-21T01:52:32.047Z,51.20
2023-04-21T01:55:03.169Z,52.60
2023-04-21T01:57:32.050Z,52.40
2023-04-21T02:00:00.466Z,51.70
2023-04-21T02:02:29.560Z,51.10
2023-04-21T02:04:57.989Z,50.10
2023-04-21T02:07:26.767Z,49.70
2023-04-21T02:09:56.673Z,50.00
2023-04-21T02:12:25.195Z,54.00
2023-04-21T02:14:54.634Z,56.20
2023-04-21T02:17:23.941Z,57.10
2023-04-21T02:19:54.813Z,56.90
2023-04-21T02:22:29.827Z,57.20
2023-04-21T02:24:59.799Z,59.00
2023-04-21T02:27:31.369Z,59.60
2023-04-21T02:30:01.934Z,60.30
2023-04-21T02:32:31.019Z,60.00
2023-04-21T02:35:00.162Z,58.80
2023-04-21T02:37:32.496Z,58.60
2023-04-21T02:40:02.804Z,57.00
2023-04-21T02:42:34.772Z,55.70
2023-04-21T02:45:03.196Z,55.80
2023-04-21T02:47:32.310Z,55.70
2023-04-21T02:50:01.129Z,56.40
2023-04-21T02:52:30.156Z,56.20
2023-04-21T02:54:58.435Z,56.00
2023-04-21T02:57:28.272Z,56.20
2023-04-21T02:59:56.605Z,56.20
2023-04-21T03:02:25.148Z,56.50
2023-04-21T03:04:54.089Z,56.50
2023-04-21T03:07:23.044Z,57.60
2023-04-21T03:09:51.311Z,60.10
2023-04-21T03:12:19.632Z,60.30
2023-04-21T03:14:49.702Z,58.70
2023-04-21T03:17:21.096Z,57.50
2023-04-21T03:19:50.001Z,57.00
2023-04-21T03:22:18.322Z,56.30
2023-04-21T03:24:46.600Z,56.10
2023-04-21T03:27:14.967Z,57.50
2023-04-21T03:29:43.684Z,57.60
2023-04-21T03:32:13.664Z,55.70
2023-04-21T03:34:42.997Z,54.60
2023-04-21T03:37:11.694Z,55.00
2023-04-21T03:39:40.076Z,55.70
2023-04-21T03:42:08.994Z,57.10
2023-04-21T03:44:37.326Z,57.50
2023-04-21T03:47:05.986Z,59.10
2023-04-21T03:49:36.906Z,62.40
2023-04-21T03:52:05.994Z,60.30
2023-04-21T03:54:34.267Z,59.30
2023-04-21T03:57:03.205Z,58.80
2023-04-21T03:59:32.537Z,58.60
2023-04-21T04:02:01.615Z,58.20
2023-04-21T04:04:30.696Z,59.40
2023-04-21T04:07:01.375Z,60.50
2023-04-21T04:09:29.950Z,62.30
2023-04-21T04:11:58.626Z,63.80
2023-04-21T04:14:27.019Z,64.70
2023-04-21T04:16:56.442Z,65.40
2023-04-21T04:19:24.803Z,66.30
2023-04-21T04:21:53.117Z,66.90
2023-04-21T04:24:22.887Z,66.80
2023-04-21T04:26:51.441Z,67.80
2023-04-21T04:29:20.100Z,68.90
2023-04-21T04:31:49.201Z,68.20
2023-04-21T04:34:17.957Z,69.60
2023-04-21T04:36:46.855Z,70.50
2023-04-21T04:39:18.408Z,69.40
2023-04-21T04:41:48.727Z,68.10
2023-04-21T04:44:18.071Z,67.60
2023-04-21T04:46:47.070Z,67.00
2023-04-21T04:49:15.546Z,66.70
2023-04-21T04:51:43.775Z,66.60
2023-04-21T04:54:12.992Z,67.30
2023-04-21T04:56:41.730Z,68.10
2023-04-21T04:59:11.804Z,69.00
2023-04-21T05:01:41.830Z,68.90
2023-04-21T05:04:10.769Z,67.90
2023-04-21T05:06:39.666Z,67.30
2023-04-21T05:09:10.334Z,68.80
2023-04-21T05:11:38.627Z,67.20
2023-04-21T05:14:07.124Z,65.30
2023-04-21T05:16:38.533Z,68.40
2023-04-21T05:19:07.931Z,70.40
2023-04-21T05:21:38.076Z,72.50
2023-04-21T05:24:07.437Z,71.80
2023-04-21T05:26:35.816Z,71.10
2023-04-21T05:29:04.782Z,72.00
2023-04-21T05:31:35.009Z,73.10
2023-04-21T05:34:05.078Z,72.60
2023-04-21T05:36:33.435Z,72.00
2023-04-21T05:39:01.700Z,73.60
2023-04-21T05:41:30.221Z,73.60
2023-04-21T05:43:59.191Z,72.80
2023-04-21T05:46:31.536Z,72.50
2023-04-21T05:49:00.154Z,72.00
2023-04-21T05:51:29.988Z,71.90
2023-04-21T05:53:58.302Z,72.00
2023-04-21T05:56:27.464Z,72.00
2023-04-21T05:58:57.202Z,72.00
2023-04-21T06:01:25.701Z,71.70
2023-04-21T06:03:54.161Z,71.80
2023-04-21T06:06:24.013Z,71.10
2023-04-21T06:08:54.056Z,71.40
2023-04-21T06:11:25.005Z,73.10
2023-04-21T06:13:58.249Z,74.00
2023-04-21T06:16:27.177Z,73.70
2023-04-21T06:18:55.930Z,74.10
2023-04-21T06:21:25.447Z,73.90
2023-04-21T06:23:55.343Z,73.90
2023-04-21T06:26:25.202Z,73.30
2023-04-21T06:28:53.532Z,74.00
2023-04-21T06:31:21.954Z,74.80
2023-04-21T06:33:50.429Z,74.80
2023-04-21T06:36:22.960Z,74.80
2023-04-21T06:38:51.371Z,74.90
2023-04-21T06:41:22.920Z,74.10
2023-04-21T06:43:52.790Z,73.90
2023-04-21T06:46:24.410Z,72.90
2023-04-21T06:48:52.827Z,72.30
2023-04-21T06:51:21.279Z,71.50
2023-04-21T06:53:50.102Z,71.00
2023-04-21T06:56:19.990Z,70.80
2023-04-21T06:58:49.743Z,70.80
2023-04-21T07:01:18.398Z,70.90
2023-04-21T07:03:47.420Z,71.10
2023-04-21T07:06:15.793Z,69.20
2023-04-21T07:08:44.128Z,68.10
2023-04-21T07:11:12.430Z,67.00
2023-04-21T07:13:42.489Z,64.40
2023-04-21T07:16:11.349Z,65.10
2023-04-21T07:18:41.956Z,64.70
2023-04-21T07:21:10.914Z,62.80
2023-04-21T07:23:39.324Z,61.70
2023-04-21T07:26:07.791Z,58.30
2023-04-21T07:28:36.518Z,56.50
2023-04-21T07:31:07.044Z,55.30
2023-04-21T07:33:35.776Z,54.10
2023-04-21T07:36:05.483Z,53.10
2023-04-21T07:38:34.832Z,51.70
2023-04-21T07:41:03.701Z,51.00
2023-04-21T07:43:32.406Z,51.40
2023-04-21T07:46:00.929Z,51.60
2023-04-21T07:48:30.844Z,49.80
2023-04-21T07:51:00.621Z,47.30
2023-04-21T07:53:29.081Z,46.80
2023-04-21T07:55:57.656Z,46.60
2023-04-21T07:58:26.053Z,46.00
2023-04-21T08:00:54.616Z,46.60
2023-04-21T08:03:24.443Z,45.20
2023-04-21T08:05:54.642Z,46.00
2023-04-21T08:08:23.528Z,47.40
2023-04-21T08:10:51.884Z,48.50
2023-04-21T08:13:21.061Z,48.30
2023-04-21T08:15:49.847Z,48.40
2023-04-21T08:18:22.089Z,47.30
2023-04-21T08:20:52.563Z,46.00
2023-04-21T08:23:22.782Z,46.30
2023-04-21T08:25:51.104Z,45.30
2023-04-21T08:28:19.450Z,45.20
2023-04-21T08:30:49.044Z,42.60
2023-04-21T08:33:17.382Z,42.60
2023-04-21T08:35:59.291Z,42.50
2023-04-21T08:38:35.620Z,43.80
2023-04-21T08:41:06.039Z,43.50
2023-04-21T08:43:34.778Z,44.20
2023-04-21T08:46:07.235Z,42.40
2023-04-21T08:48:37.756Z,40.40
2023-04-21T08:51:09.748Z,42.10
2023-04-21T08:53:42.795Z,42.40
2023-04-21T08:56:12.273Z,41.00
2023-04-21T08:58:42.136Z,41.70
2023-04-21T09:01:11.101Z,41.30
2023-04-21T09:03:40.137Z,41.90
2023-04-21T09:06:11.156Z,41.90
2023-04-21T09:08:45.053Z,38.20
2023-04-21T09:11:16.027Z,38.10
2023-04-21T09:13:47.453Z,37.30
2023-04-21T09:16:22.419Z,36.40
2023-04-21T09:18:51.987Z,37.50
2023-04-21T09:21:23.201Z,37.70
2023-04-21T09:23:55.582Z,37.10
2023-04-21T09:26:24.733Z,39.90
2023-04-21T09:28:55.268Z,39.40
2023-04-21T09:31:25.676Z,38.30
2023-04-21T09:33:59.546Z,39.20
2023-04-21T09:36:31.995Z,36.30
2023-04-21T09:41:36.586Z,35.00
2023-04-21T09:44:05.263Z,37.40
2023-04-21T09:46:37.087Z,36.70
2023-04-21T09:49:06.239Z,34.80
2023-04-21T09:56:52.498Z,34.80
2023-04-21T09:59:27.612Z,34.40
2023-04-21T10:01:58.961Z,36.30
2023-04-21T10:04:29.145Z,36.80
2023-04-21T10:06:58.165Z,36.80
2023-04-21T10:09:34.511Z,36.20
2023-04-21T10:12:06.444Z,37.70
2023-04-21T10:14:38.224Z,35.70
2023-04-21T10:17:11.164Z,32.60
2023-04-21T10:19:49.387Z,34.40
2023-04-21T10:22:29.156Z,37.30
2023-04-21T10:25:00.058Z,35.30
2023-04-21T10:27:36.537Z,33.50
2023-04-21T10:30:21.058Z,38.30
2023-04-21T10:32:50.027Z,33.60
2023-04-21T10:35:24.043Z,37.90
2023-04-21T10:37:53.119Z,33.40
2023-04-21T10:43:43.382Z,34.90
2023-04-21T10:46:33.008Z,34.10
2023-04-21T10:49:07.084Z,33.70
2023-04-21T10:52:04.432Z,34.40
2023-04-21T10:54:41.771Z,34.60
2023-04-21T10:57:13.796Z,35.70
2023-04-21T10:59:43.489Z,35.20
2023-04-21T11:02:13.693Z,35.30
2023-04-21T11:04:46.220Z,34.50
2023-04-21T11:07:16.982Z,34.20
2023-04-21T11:09:48.702Z,33.80
2023-04-21T11:12:19.836Z,34.00
2023-04-21T11:14:49.654Z,33.10
2023-04-21T11:17:20.278Z,34.40
2023-04-21T11:19:54.229Z,33.70
2023-04-21T11:22:25.153Z,34.20
2023-04-21T11:24:57.097Z,34.50
2023-04-21T11:27:30.878Z,35.10
2023-04-21T11:29:59.440Z,33.80
2023-04-21T11:32:29.286Z,35.70
2023-04-21T11:35:00.977Z,34.70
2023-04-21T11:37:30.069Z,35.20
2023-04-21T11:39:59.877Z,34.00
2023-04-21T11:42:31.970Z,34.40
2023-04-21T11:45:00.672Z,35.10
2023-04-21T11:47:30.202Z,34.20
2023-04-21T11:50:01.946Z,34.20
2023-04-21T11:52:33.286Z,35.20
2023-04-21T11:55:03.472Z,34.60
2023-04-21T11:57:34.256Z,33.30
2023-04-21T12:00:06.540Z,34.40
2023-04-21T12:02:35.751Z,34.90
2023-04-21T12:05:06.234Z,32.80
2023-04-21T12:07:37.586Z,35.50
2023-04-21T12:10:11.778Z,34.60
2023-04-21T12:12:43.064Z,34.60
2023-04-21T12:15:20.383Z,32.40
2023-04-21T12:17:51.722Z,33.40
2023-04-21T12:20:22.058Z,34.90
2023-04-21T12:22:52.507Z,34.30
2023-04-21T12:25:21.379Z,33.40
2023-04-21T12:27:52.100Z,31.60
2023-04-21T12:30:21.600Z,32.60
2023-04-21T12:32:52.095Z,34.00
2023-04-21T12:35:20.924Z,35.00
2023-04-21T12:37:50.567Z,33.40
2023-04-21T12:40:20.200Z,32.30
2023-04-21T12:42:49.096Z,33.90
2023-04-21T12:45:22.248Z,34.10
2023-04-21T12:47:50.956Z,33.30
2023-04-21T12:50:19.837Z,34.40
2023-04-21T12:52:48.923Z,33.30
2023-04-21T12:55:24.194Z,34.40
2023-04-21T12:57:54.422Z,32.80
2023-04-21T13:00:37.373Z,34.10
2023-04-21T13:03:16.319Z,31.10
2023-04-21T13:05:46.027Z,34.40
2023-04-21T13:08:15.771Z,33.00
2023-04-21T13:10:46.032Z,32.10
2023-04-21T13:13:14.950Z,31.20
2023-04-21T13:15:46.503Z,30.20
2023-04-21T13:18:15.722Z,31.70
2023-04-21T13:21:02.993Z,30.90
2023-04-21T13:23:37.519Z,31.90
2023-04-21T13:26:07.030Z,30.60
2023-04-21T13:28:40.002Z,29.40
2023-04-21T13:31:10.133Z,30.90
2023-04-21T13:33:39.908Z,31.00
2023-04-21T13:36:11.866Z,32.60
2023-04-21T13:38:41.455Z,32.40
2023-04-21T13:41:10.082Z,30.90
2023-04-21T13:43:44.746Z,29.90
2023-04-21T13:46:15.275Z,30.80
2023-04-21T13:48:46.464Z,31.00
2023-04-21T13:51:15.036Z,29.70
2023-04-21T13:53:43.537Z,31.20
2023-04-21T13:56:14.058Z,30.40
2023-04-21T13:58:42.748Z,29.80
2023-04-21T14:01:11.343Z,31.50
2023-04-21T14:03:42.108Z,29.80
2023-04-21T14:06:10.679Z,29.80
2023-04-21T14:08:39.364Z,31.50
2023-04-21T14:11:07.703Z,31.60
2023-04-21T14:13:42.516Z,30.00
2023-04-21T14:16:14.008Z,29.70
2023-04-21T14:18:45.298Z,32.30
2023-04-21T14:21:14.688Z,30.00
2023-04-21T14:23:43.144Z,28.60
2023-04-21T14:26:11.914Z,28.20
2023-04-21T14:28:40.648Z,29.50
2023-04-21T14:31:09.857Z,29.80
2023-04-21T14:33:38.442Z,30.00
2023-04-21T14:36:08.529Z,29.80
2023-04-21T14:38:40.061Z,28.60
2023-04-21T14:41:08.382Z,28.80
2023-04-21T14:43:36.786Z,28.90
2023-04-21T14:46:05.827Z,28.00
2023-04-21T14:48:34.444Z,28.80
2023-04-21T14:51:04.254Z,29.40
2023-04-21T14:53:34.036Z,29.30
2023-04-21T14:56:02.413Z,28.80
2023-04-21T14:58:30.765Z,29.60
2023-04-21T15:00:59.350Z,30.00
2023-04-21T15:03:28.055Z,28.80
2023-04-21T15:05:56.539Z,29.00
2023-04-21T15:08:25.016Z,29.70
2023-04-21T15:11:02.828Z,29.60
2023-04-21T15:13:31.393Z,29.50
2023-04-21T15:15:59.808Z,30.70
2023-04-21T15:18:28.112Z,31.50
2023-04-21T15:20:57.408Z,29.50
2023-04-21T15:23:26.350Z,30.50
2023-04-21T15:25:54.706Z,33.60
2023-04-21T15:28:24.620Z,32.70
2023-04-21T15:30:53.803Z,32.10
2023-04-21T15:33:22.680Z,30.70
2023-04-21T15:35:51.513Z,31.90
2023-04-21T15:38:21.297Z,31.90
2023-04-21T15:41:00.654Z,31.00
2023-04-21T15:43:31.739Z,31.20
2023-04-21T15:46:00.215Z,30.20
2023-04-21T15:48:28.706Z,30.90
2023-04-21T15:50:58.027Z,27.00
2023-04-21T15:53:27.612Z,26.20
2023-04-21T15:55:56.102Z,27.90
2023-04-21T15:58:24.367Z,27.50
2023-04-21T16:00:54.174Z,27.70
2023-04-21T16:03:23.249Z,28.20
2023-04-21T16:05:56.128Z,30.70
2023-04-21T16:08:28.121Z,29.80
2023-04-21T16:10:57.342Z,33.20
2023-04-21T16:13:25.678Z,32.00
2023-04-21T16:15:55.432Z,36.10
2023-04-21T16:18:24.859Z,38.20
2023-04-21T16:20:53.777Z,40.00
2023-04-21T16:23:22.331Z,41.50
2023-04-21T16:25:51.440Z,41.90
2023-04-21T16:28:21.902Z,37.80
2023-04-21T16:30:50.540Z,38.40
2023-04-21T16:33:20.817Z,36.80
2023-04-21T16:35:49.293Z,39.30
2023-04-21T16:38:17.721Z,38.70
2023-04-21T16:40:46.333Z,36.30
2023-04-21T16:43:14.690Z,40.00
2023-04-21T16:45:48.398Z,36.40
2023-04-21T16:48:16.901Z,34.90
2023-04-21T16:50:46.827Z,36.50
2023-04-21T16:53:15.335Z,35.60
2023-04-21T16:55:45.724Z,34.40
2023-04-21T16:58:14.123Z,35.30
2023-04-21T17:00:42.496Z,34.80
2023-04-21T17:03:11.395Z,36.40
2023-04-21T17:05:40.115Z,35.30
2023-04-21T17:08:10.431Z,35.90
2023-04-21T17:10:38.844Z,34.40
2023-04-21T17:13:07.887Z,35.50
2023-04-21T17:15:36.266Z,40.20
2023-04-21T17:18:05.107Z,42.80
2023-04-21T17:20:34.986Z,44.00
2023-04-21T17:23:03.505Z,45.00
2023-04-21T17:25:33.855Z,45.20
2023-04-21T17:28:02.256Z,45.20
2023-04-21T17:30:31.005Z,45.80
2023-04-21T17:33:12.644Z,47.10
2023-04-21T17:36:02.132Z,47.10
2023-04-21T17:38:32.183Z,46.90
2023-04-21T17:41:03.065Z,45.80
2023-04-21T17:43:31.467Z,44.80
2023-04-21T17:46:00.158Z,42.30
2023-04-21T17:48:28.692Z,41.80
2023-04-21T17:50:57.065Z,42.80
2023-04-21T17:53:25.578Z,42.60
2023-04-21T17:55:53.953Z,42.80
2023-04-21T17:58:23.760Z,42.00
2023-04-21T18:00:54.728Z,42.00
2023-04-21T18:03:23.667Z,42.00
2023-04-21T18:05:52.557Z,43.30
2023-04-21T18:08:21.782Z,44.70
2023-04-21T18:10:50.243Z,45.40
2023-04-21T18:13:18.751Z,44.90
2023-04-21T18:15:48.633Z,44.90
2023-04-21T18:18:17.170Z,45.30
2023-04-21T18:20:45.838Z,46.30
2023-04-21T18:23:14.957Z,45.80
2023-04-21T18:25:43.458Z,46.20
2023-04-21T18:28:13.016Z,45.80
2023-04-21T18:30:42.875Z,45.20
2023-04-21T18:33:12.922Z,44.20
2023-04-21T18:35:42.668Z,44.20
2023-04-21T18:38:11.955Z,45.30
2023-04-21T18:40:41.174Z,47.10
2023-04-21T18:43:11.112Z,47.10
2023-04-21T18:45:40.115Z,48.70
2023-04-21T18:48:08.929Z,50.40
2023-04-21T18:50:40.385Z,48.10
2023-04-21T18:53:09.698Z,46.40
2023-04-21T18:55:38.532Z,46.30
2023-04-21T18:58:07.183Z,45.20
2023-04-21T19:00:39.046Z,45.00
2023-04-21T19:03:08.272Z,44.40
2023-04-21T19:05:40.530Z,44.20
2023-04-21T19:08:10.228Z,43.90
2023-04-21T19:10:39.389Z,44.20
2023-04-21T19:13:08.686Z,44.80
2023-04-21T19:15:37.186Z,45.40
2023-04-21T19:18:06.692Z,45.70
2023-04-21T19:20:37.528Z,47.50
2023-04-21T19:23:07.333Z,48.60
2023-04-21T19:25:36.912Z,49.40
2023-04-21T19:28:06.507Z,49.30
2023-04-21T19:30:34.908Z,49.00
2023-04-21T19:33:05.251Z,48.30
2023-04-21T19:35:33.985Z,46.70
2023-04-21T19:38:02.388Z,46.40
2023-04-21T19:40:32.168Z,47.00
2023-04-21T19:43:04.602Z,47.80
2023-04-21T19:45:34.076Z,49.60
2023-04-21T19:48:02.452Z,49.70
2023-04-21T19:50:31.265Z,50.00
2023-04-21T19:52:59.626Z,48.40
2023-04-21T19:55:28.056Z,47.40
2023-04-21T19:57:58.655Z,45.70
2023-04-21T20:00:27.550Z,46.80
2023-04-21T20:02:56.223Z,46.60
2023-04-21T20:05:24.725Z,46.30
2023-04-21T20:07:53.374Z,44.70
2023-04-21T20:10:22.147Z,44.70
2023-04-21T20:12:50.511Z,44.70
2023-04-21T20:15:21.325Z,44.60
2023-04-21T20:17:50.040Z,44.50
2023-04-21T20:20:18.572Z,46.80
2023-04-21T20:22:56.572Z,45.30
2023-04-21T20:25:24.974Z,45.30
2023-04-21T20:27:53.472Z,46.40
2023-04-21T20:30:23.396Z,47.00
2023-04-21T20:32:51.801Z,47.70
2023-04-21T20:35:20.213Z,48.20
2023-04-21T20:37:48.592Z,47.80
2023-04-21T20:40:18.712Z,49.20
2023-04-21T20:42:47.289Z,48.80
2023-04-21T20:45:18.483Z,47.10
2023-04-21T20:47:48.555Z,47.70
2023-04-21T20:50:16.987Z,48.90
2023-04-21T20:52:46.312Z,48.70
2023-04-21T20:55:14.710Z,48.10
2023-04-21T20:57:43.355Z,46.70
2023-04-21T21:00:12.367Z,47.90
2023-04-21T21:02:41.209Z,47.90
2023-04-21T21:05:11.527Z,47.80
2023-04-21T21:07:39.948Z,46.30
2023-04-21T21:10:11.352Z,47.40
2023-04-21T21:12:39.733Z,47.60
2023-04-21T21:15:09.643Z,47.40
2023-04-21T21:17:38.043Z,47.30
2023-04-21T21:20:08.068Z,48.90
2023-04-21T21:22:37.986Z,50.00
2023-04-21T21:25:07.099Z,50.40
2023-04-21T21:27:35.479Z,51.10
2023-04-21T21:30:04.163Z,51.10
2023-04-21T21:32:32.654Z,51.10
2023-04-21T21:35:03.062Z,50.40
2023-04-21T21:37:31.538Z,50.20
2023-04-21T21:40:01.349Z,51.00
2023-04-21T21:42:31.449Z,51.30
2023-04-21T21:44:59.969Z,50.70
2023-04-21T21:47:28.793Z,49.50
2023-04-21T21:49:58.956Z,49.70
2023-04-21T21:52:28.650Z,48.60
2023-04-21T21:54:58.386Z,47.30
2023-04-21T21:57:28.418Z,47.80
2023-04-21T22:00:00.476Z,48.00
2023-04-21T22:02:30.038Z,47.70
2023-04-21T22:04:59.740Z,47.10
2023-04-21T22:07:29.415Z,47.20
2023-04-21T22:09:59.911Z,48.00
2023-04-21T22:12:33.948Z,48.40
2023-04-21T22:15:02.700Z,47.70
2023-04-21T22:17:34.730Z,47.90
2023-04-21T22:20:08.366Z,46.80
2023-04-21T22:22:37.108Z,45.70
2023-04-21T22:25:06.590Z,46.90
2023-04-21T22:27:38.988Z,46.70
2023-04-21T22:30:09.111Z,46.10
2023-04-21T22:32:37.944Z,47.20
2023-04-21T22:35:07.451Z,46.60
2023-04-21T22:37:35.990Z,46.60
2023-04-21T22:40:05.091Z,46.10
2023-04-21T22:42:33.689Z,46.30
2023-04-21T22:45:05.231Z,46.60
2023-04-21T22:47:34.242Z,46.00
2023-04-21T22:50:04.486Z,46.20
2023-04-21T22:52:33.201Z,46.40
2023-04-21T22:55:01.909Z,47.30
2023-04-21T22:57:30.534Z,47.30
2023-04-21T23:00:08.106Z,46.60
2023-04-21T23:02:37.242Z,46.60
2023-04-21T23:05:06.796Z,44.90
2023-04-21T23:07:36.739Z,44.20
2023-04-21T23:10:05.999Z,43.60
2023-04-21T23:12:34.603Z,45.30
2023-04-21T23:15:03.206Z,45.70
2023-04-21T23:17:33.456Z,46.60
2023-04-21T23:20:02.701Z,46.10
2023-04-21T23:22:31.155Z,45.10
2023-04-21T23:25:00.168Z,44.10
2023-04-21T23:27:28.740Z,43.60
2023-04-21T23:29:57.199Z,43.70
2023-04-21T23:32:25.808Z,43.70
2023-04-21T23:34:55.773Z,43.90
2023-04-21T23:37:24.268Z,44.60
2023-04-21T23:39:52.975Z,45.50
2023-04-21T23:42:21.640Z,47.20
2023-04-21T23:44:50.406Z,49.50
2023-04-21T23:47:19.216Z,49.40
2023-04-21T23:49:47.725Z,49.10
2023-04-21T23:52:17.775Z,48.10
2023-04-21T23:54:47.394Z,48.20
2023-04-21T23:57:16.084Z,47.20
2023-04-21T23:59:44.896Z,47.50
